createdAt,value
2023-01-13T00:00:34.032Z,98555.11
2023-01-13T00:03:22.178Z,98554.87
2023-01-13T00:05:50.887Z,98548.14
2023-01-13T00:08:19.257Z,98546.88
2023-01-13T00:10:48.135Z,98540.30
2023-01-13T00:13:16.530Z,98539.52
2023-01-13T00:15:44.852Z,98529.91
2023-01-13T00:18:14.004Z,98527.67
2023-01-13T00:20:42.393Z,98529.29
2023-01-13T00:23:10.671Z,98525.06
2023-01-13T00:25:38.949Z,98525.52
2023-01-13T00:28:09.119Z,98524.93
2023-01-13T00:30:37.976Z,98525.13
2023-01-13T00:33:06.245Z,98527.69
2023-01-13T00:35:34.634Z,98535.54
2023-01-13T00:38:03.008Z,98534.89
2023-01-13T00:40:31.289Z,98527.02
2023-01-13T00:43:17.991Z,98534.27
2023-01-13T00:45:46.285Z,98536.34
2023-01-13T00:48:14.526Z,98538.22
2023-01-13T00:50:42.935Z,98538.87
2023-01-13T00:53:11.905Z,98533.83
2023-01-13T00:55:40.435Z,98531.87
2023-01-13T00:58:08.883Z,98527.23
2023-01-13T01:00:37.599Z,98527.08
2023-01-13T01:03:08.304Z,98527.79
2023-01-13T01:05:36.589Z,98526.31
2023-01-13T01:08:05.329Z,98524.86
2023-01-13T01:10:33.671Z,98523.17
2023-01-13T01:13:01.954Z,98520.38
2023-01-13T01:15:30.303Z,98519.77
2023-01-13T01:17:58.577Z,98517.34
2023-01-13T01:20:26.863Z,98513.48
2023-01-13T01:22:55.109Z,98506.80
2023-01-13T01:25:23.544Z,98508.58
2023-01-13T01:27:51.900Z,98511.95
2023-01-13T01:30:20.451Z,98508.48
2023-01-13T01:32:48.815Z,98505.64
2023-01-13T01:35:17.247Z,98499.64
2023-01-13T01:37:45.664Z,98497.08
2023-01-13T01:40:14.683Z,98492.23
2023-01-13T01:43:01.538Z,98489.33
2023-01-13T01:45:31.078Z,98485.48
2023-01-13T01:48:02.781Z,98480.41
2023-01-13T01:50:32.699Z,98480.95
2023-01-13T01:53:07.232Z,98478.19
2023-01-13T01:55:37.977Z,98476.96
2023-01-13T01:58:11.349Z,98472.60
2023-01-13T02:00:39.761Z,98467.98
2023-01-13T02:03:10.692Z,98463.77
2023-01-13T02:05:39.000Z,98464.53
2023-01-13T02:08:11.290Z,98464.27
2023-01-13T02:10:42.144Z,98471.45
2023-01-13T02:13:13.404Z,98470.77
2023-01-13T02:15:53.958Z,98467.33
2023-01-13T02:18:36.092Z,98460.39
2023-01-13T02:21:27.493Z,98455.44
2023-01-13T02:26:57.977Z,98448.09
2023-01-13T02:30:22.962Z,98444.61
2023-01-13T02:33:31.027Z,98447.16
2023-01-13T02:36:13.896Z,98445.89
2023-01-13T02:39:14.122Z,98439.04
2023-01-13T02:42:27.519Z,98434.30
2023-01-13T02:45:24.731Z,98426.98
2023-01-13T02:48:20.280Z,98426.04
2023-01-13T02:51:16.426Z,98428.00
2023-01-13T02:54:13.628Z,98422.67
2023-01-13T02:57:09.734Z,98429.36
2023-01-13T03:00:02.912Z,98426.48
2023-01-13T03:02:55.238Z,98419.96
2023-01-13T03:05:50.241Z,98421.85
2023-01-13T03:08:34.740Z,98420.27
2023-01-13T03:11:35.585Z,98415.40
2023-01-13T03:14:37.231Z,98410.27
2023-01-13T03:17:39.225Z,98407.86
2023-01-13T03:20:38.514Z,98406.85
2023-01-13T03:23:36.394Z,98399.27
2023-01-13T03:26:35.825Z,98396.04
2023-01-13T03:29:34.828Z,98398.45
2023-01-13T03:32:30.690Z,98398.17
2023-01-13T03:35:11.798Z,98401.45
2023-01-13T03:38:08.529Z,98395.46
2023-01-13T03:41:04.441Z,98391.83
2023-01-13T03:44:22.008Z,98392.48
2023-01-13T03:47:22.031Z,98390.33
2023-01-13T03:50:19.815Z,98383.64
2023-01-13T03:52:57.735Z,98387.55
2023-01-13T03:55:55.108Z,98389.82
2023-01-13T03:58:34.057Z,98387.64
2023-01-13T04:01:33.875Z,98386.80
2023-01-13T04:04:31.157Z,98392.60
2023-01-13T04:07:41.144Z,98392.38
2023-01-13T04:10:39.687Z,98390.05
2023-01-13T04:13:38.095Z,98386.83
2023-01-13T04:16:30.480Z,98384.37
2023-01-13T04:19:12.035Z,98382.58
2023-01-13T04:22:04.492Z,98384.52
2023-01-13T04:24:56.689Z,98386.11
2023-01-13T04:27:48.829Z,98391.73
2023-01-13T04:30:41.530Z,98391.69
2023-01-13T04:33:33.876Z,98389.77
2023-01-13T04:36:10.461Z,98394.88
2023-01-13T04:39:02.887Z,98402.25
2023-01-13T04:42:02.783Z,98397.14
2023-01-13T04:44:43.769Z,98389.92
2023-01-13T04:47:35.975Z,98382.73
2023-01-13T04:50:28.852Z,98378.56
2023-01-13T04:53:20.994Z,98381.19
2023-01-13T04:56:13.157Z,98382.17
2023-01-13T04:59:05.306Z,98382.62
2023-01-13T05:01:57.668Z,98381.23
2023-01-13T05:04:50.788Z,98380.83
2023-01-13T05:07:43.015Z,98379.66
2023-01-13T05:10:35.199Z,98384.06
2023-01-13T05:13:45.029Z,98381.84
2023-01-13T05:16:54.949Z,98379.29
2023-01-13T05:19:47.398Z,98381.15
2023-01-13T05:22:57.075Z,98386.82
2023-01-13T05:25:50.679Z,98387.88
2023-01-13T05:28:25.622Z,98391.71
2023-01-13T05:31:00.494Z,98388.21
2023-01-13T05:33:52.828Z,98392.63
2023-01-13T05:36:24.867Z,98393.38
2023-01-13T05:39:17.050Z,98392.41
2023-01-13T05:42:28.390Z,98397.55
2023-01-13T05:45:00.567Z,98391.41
2023-01-13T05:47:52.750Z,98386.02
2023-01-13T05:50:44.962Z,98389.57
2023-01-13T05:53:37.649Z,98378.98
2023-01-13T05:56:29.829Z,98373.55
2023-01-13T05:59:04.871Z,98379.40
2023-01-13T06:01:45.785Z,98373.75
2023-01-13T06:04:39.141Z,98379.26
2023-01-13T06:07:31.409Z,98381.08
2023-01-13T06:10:23.661Z,98381.77
2023-01-13T06:13:15.867Z,98386.32
2023-01-13T06:16:08.925Z,98392.36
2023-01-13T06:19:01.458Z,98397.06
2023-01-13T06:21:36.327Z,98400.23
2023-01-13T06:24:29.600Z,98397.84
2023-01-13T06:27:23.926Z,98398.64
2023-01-13T06:30:05.131Z,98404.60
2023-01-13T06:33:00.046Z,98402.48
2023-01-13T06:35:57.843Z,98399.84
2023-01-13T06:38:52.062Z,98401.31
2023-01-13T06:42:00.352Z,98399.45
2023-01-13T06:44:54.449Z,98399.02
2023-01-13T06:47:46.722Z,98402.73
2023-01-13T06:50:37.829Z,98400.45
2023-01-13T06:53:13.299Z,98399.83
2023-01-13T06:56:05.774Z,98395.14
2023-01-13T06:58:58.140Z,98387.80
2023-01-13T07:01:50.405Z,98394.30
2023-01-13T07:04:44.368Z,98394.80
2023-01-13T07:07:36.597Z,98394.52
2023-01-13T07:10:28.924Z,98394.98
2023-01-13T07:13:40.395Z,98398.77
2023-01-13T07:16:34.670Z,98399.88
2023-01-13T07:19:09.862Z,98402.46
2023-01-13T07:22:02.190Z,98398.05
2023-01-13T07:24:43.384Z,98403.13
2023-01-13T07:27:36.059Z,98402.98
2023-01-13T07:30:28.461Z,98400.80
2023-01-13T07:33:09.957Z,98399.07
2023-01-13T07:36:03.704Z,98404.69
2023-01-13T07:38:56.795Z,98405.80
2023-01-13T07:42:02.747Z,98407.91
2023-01-13T07:44:55.070Z,98409.75
2023-01-13T07:47:47.269Z,98409.53
2023-01-13T07:50:23.724Z,98409.02
2023-01-13T07:53:15.848Z,98408.20
2023-01-13T07:56:10.390Z,98409.45
2023-01-13T07:59:03.094Z,98405.65
2023-01-13T08:01:56.341Z,98402.15
2023-01-13T08:04:48.772Z,98404.19
2023-01-13T08:07:23.639Z,98401.12
2023-01-13T08:10:07.851Z,98401.98
2023-01-13T08:13:17.344Z,98403.29
2023-01-13T08:15:55.170Z,98406.77
2023-01-13T08:18:47.435Z,98412.83
2023-01-13T08:21:19.555Z,98420.98
2023-01-13T08:24:13.373Z,98411.89
2023-01-13T08:26:48.288Z,98415.23
2023-01-13T08:29:23.092Z,98417.39
2023-01-13T08:32:04.238Z,98419.70
2023-01-13T08:34:56.835Z,98415.73
2023-01-13T08:37:49.838Z,98413.73
2023-01-13T08:40:25.020Z,98419.08
2023-01-13T08:43:17.519Z,98420.91
2023-01-13T08:46:10.255Z,98425.60
2023-01-13T08:49:02.719Z,98427.63
2023-01-13T08:51:55.520Z,98427.30
2023-01-13T08:54:47.801Z,98424.77
2023-01-13T08:57:40.145Z,98421.29
2023-01-13T09:00:32.442Z,98423.05
2023-01-13T09:03:25.495Z,98418.56
2023-01-13T09:05:57.801Z,98421.97
2023-01-13T09:08:33.091Z,98416.98
2023-01-13T09:11:48.916Z,98417.20
2023-01-13T09:14:25.830Z,98415.14
2023-01-13T09:17:01.613Z,98415.67
2023-01-13T09:19:37.357Z,98418.36
2023-01-13T09:22:17.888Z,98425.58
2023-01-13T09:25:12.515Z,98422.77
2023-01-13T09:27:53.325Z,98421.93
2023-01-13T09:30:45.577Z,98418.95
2023-01-13T09:33:35.657Z,98415.17
2023-01-13T09:36:11.163Z,98414.09
2023-01-13T09:39:03.616Z,98401.48
2023-01-13T09:42:19.944Z,98400.48
2023-01-13T09:45:16.906Z,98394.72
2023-01-13T09:48:17.011Z,98388.44
2023-01-13T09:51:21.297Z,98385.66
2023-01-13T09:54:21.755Z,98387.68
2023-01-13T09:57:16.376Z,98390.21
2023-01-13T10:00:18.889Z,98385.64
2023-01-13T10:03:22.155Z,98380.53
2023-01-13T10:06:20.036Z,98376.77
2023-01-13T10:09:20.013Z,98371.29
2023-01-13T10:12:37.962Z,98373.75
2023-01-13T10:15:30.840Z,98368.21
2023-01-13T10:18:29.892Z,98362.39
2023-01-13T10:21:53.596Z,98356.45
2023-01-13T10:25:26.365Z,98356.69
2023-01-13T10:28:19.861Z,98349.83
2023-01-13T10:31:17.699Z,98349.02
2023-01-13T10:34:10.264Z,98345.27
2023-01-13T10:37:06.595Z,98344.45
2023-01-13T10:40:02.845Z,98341.94
2023-01-13T10:43:07.962Z,98338.81
2023-01-13T10:48:42.663Z,98339.24
2023-01-13T10:51:50.190Z,98334.66
2023-01-13T10:54:54.189Z,98332.16
2023-01-13T10:57:30.042Z,98328.36
2023-01-13T11:02:19.900Z,98320.35
2023-01-13T11:05:25.932Z,98322.54
2023-01-13T11:08:20.771Z,98321.60
2023-01-13T11:11:40.332Z,98315.19
2023-01-13T11:17:09.779Z,98310.09
2023-01-13T11:20:14.475Z,98313.39
2023-01-13T11:23:10.559Z,98310.06
2023-01-13T11:25:52.077Z,98314.00
2023-01-13T11:28:41.234Z,98315.38
2023-01-13T11:31:38.095Z,98317.73
2023-01-13T11:34:29.210Z,98319.75
2023-01-13T11:37:24.602Z,98314.34
2023-01-13T11:40:22.436Z,98311.77
2023-01-13T11:43:24.200Z,98318.17
2023-01-13T11:46:16.487Z,98312.30
2023-01-13T11:49:11.523Z,98310.06
2023-01-13T11:52:12.403Z,98305.17
2023-01-13T11:55:22.645Z,98303.36
2023-01-13T11:58:50.160Z,98303.90
2023-01-13T12:02:15.372Z,98300.15
2023-01-13T12:05:04.365Z,98293.98
2023-01-13T12:08:06.342Z,98292.94
2023-01-13T12:11:08.862Z,98290.19
2023-01-13T12:14:17.695Z,98279.64
2023-01-13T12:17:23.311Z,98277.92
2023-01-13T12:20:29.326Z,98278.26
2023-01-13T12:23:31.356Z,98275.90
2023-01-13T12:26:24.804Z,98278.88
2023-01-13T12:29:19.347Z,98279.61
2023-01-13T12:32:03.543Z,98276.45
2023-01-13T12:35:08.556Z,98280.46
2023-01-13T12:38:09.366Z,98282.75
2023-01-13T12:40:52.323Z,98280.27
2023-01-13T12:44:06.545Z,98277.17
2023-01-13T12:47:01.554Z,98284.58
2023-01-13T12:50:13.711Z,98288.49
2023-01-13T12:53:38.696Z,98293.77
2023-01-13T12:56:37.988Z,98294.00
2023-01-13T12:59:49.889Z,98292.21
2023-01-13T13:02:44.056Z,98288.92
2023-01-13T13:05:47.904Z,98286.67
2023-01-13T13:09:05.029Z,98292.12
2023-01-13T13:12:14.734Z,98296.08
2023-01-13T13:15:23.371Z,98301.98
2023-01-13T13:18:31.229Z,98307.27
2023-01-13T13:21:24.020Z,98308.41
2023-01-13T13:24:18.162Z,98309.84
2023-01-13T13:27:25.482Z,98311.52
2023-01-13T13:30:24.782Z,98315.69
2023-01-13T13:33:36.944Z,98313.23
2023-01-13T13:36:50.543Z,98313.98
2023-01-13T13:39:45.639Z,98305.52
2023-01-13T13:43:02.399Z,98304.03
2023-01-13T13:46:12.256Z,98306.88
2023-01-13T13:49:04.532Z,98315.11
2023-01-13T13:52:04.410Z,98316.63
2023-01-13T13:54:59.800Z,98317.08
2023-01-13T13:57:54.594Z,98320.94
2023-01-13T14:00:34.242Z,98321.72
2023-01-13T14:03:30.204Z,98319.31
2023-01-13T14:06:25.513Z,98312.32
2023-01-13T14:09:21.144Z,98312.08
2023-01-13T14:12:20.599Z,98312.23
2023-01-13T14:15:28.288Z,98307.40
2023-01-13T14:18:22.848Z,98316.38
2023-01-13T14:21:01.950Z,98323.14
2023-01-13T14:23:57.622Z,98316.14
2023-01-13T14:26:53.082Z,98321.15
2023-01-13T14:29:46.792Z,98316.45
2023-01-13T14:32:32.724Z,98316.63
2023-01-13T14:35:25.026Z,98320.38
2023-01-13T14:38:19.347Z,98325.50
2023-01-13T14:41:22.830Z,98330.08
2023-01-13T14:44:23.140Z,98328.37
2023-01-13T14:46:57.345Z,98332.48
2023-01-13T14:49:59.048Z,98334.87
2023-01-13T14:52:54.565Z,98333.73
2023-01-13T14:55:46.688Z,98340.17
2023-01-13T14:58:38.878Z,98339.63
2023-01-13T15:01:36.275Z,98343.11
2023-01-13T15:04:27.675Z,98341.95
2023-01-13T15:07:26.148Z,98344.97
2023-01-13T15:10:19.210Z,98345.13
2023-01-13T15:13:26.784Z,98347.30
2023-01-13T15:16:21.910Z,98350.96
2023-01-13T15:19:14.263Z,98344.17
2023-01-13T15:21:55.452Z,98345.01
2023-01-13T15:24:48.303Z,98351.15
2023-01-13T15:27:28.055Z,98350.04
2023-01-13T15:30:22.719Z,98355.18
2023-01-13T15:33:15.909Z,98357.94
2023-01-13T15:35:53.701Z,98359.99
2023-01-13T15:38:45.921Z,98358.35
2023-01-13T15:41:55.908Z,98357.69
2023-01-13T15:45:05.728Z,98359.95
2023-01-13T15:47:58.391Z,98358.34
2023-01-13T15:50:51.482Z,98358.83
2023-01-13T15:53:43.889Z,98365.58
2023-01-13T15:56:27.389Z,98364.66
2023-01-13T15:59:22.703Z,98368.95
2023-01-13T16:02:18.094Z,98372.58
2023-01-13T16:05:11.540Z,98380.00
2023-01-13T16:08:00.863Z,98383.12
2023-01-13T16:10:54.381Z,98387.36
2023-01-13T16:13:46.570Z,98388.58
2023-01-13T16:16:25.237Z,98391.88
2023-01-13T16:19:17.507Z,98397.84
2023-01-13T16:22:13.075Z,98389.89
2023-01-13T16:25:07.195Z,98387.23
2023-01-13T16:27:59.416Z,98390.88
2023-01-13T16:30:41.383Z,98393.72
2023-01-13T16:33:33.532Z,98392.62
2023-01-13T16:36:25.938Z,98395.58
2023-01-13T16:39:20.275Z,98395.71
2023-01-13T16:42:12.534Z,98394.52
2023-01-13T16:45:08.707Z,98392.73
2023-01-13T16:48:01.267Z,98394.73
2023-01-13T16:50:53.591Z,98398.65
2023-01-13T16:53:46.079Z,98399.13
2023-01-13T16:56:25.569Z,98403.33
2023-01-13T16:59:17.928Z,98405.55
2023-01-13T17:02:15.270Z,98405.77
2023-01-13T17:05:10.664Z,98403.77
2023-01-13T17:08:03.119Z,98401.69
2023-01-13T17:10:55.807Z,98396.02
2023-01-13T17:13:48.478Z,98397.25
2023-01-13T17:16:41.355Z,98395.27
2023-01-13T17:19:34.125Z,98396.05
2023-01-13T17:22:26.815Z,98396.66
2023-01-13T17:25:19.841Z,98398.11
2023-01-13T17:28:12.572Z,98398.11
2023-01-13T17:31:05.239Z,98401.92
2023-01-13T17:33:58.050Z,98397.04
2023-01-13T17:36:50.741Z,98401.02
2023-01-13T17:39:46.307Z,98401.55
2023-01-13T17:43:29.090Z,98400.77
2023-01-13T17:46:23.038Z,98409.49
2023-01-13T17:49:17.071Z,98412.06
2023-01-13T17:52:09.256Z,98410.95
2023-01-13T17:55:01.435Z,98411.84
2023-01-13T17:57:53.617Z,98409.66
2023-01-13T18:00:45.775Z,98411.88
2023-01-13T18:03:20.986Z,98411.77
2023-01-13T18:06:18.549Z,98418.23
2023-01-13T18:08:56.646Z,98423.25
2023-01-13T18:11:48.757Z,98424.42
2023-01-13T18:14:40.885Z,98434.11
2023-01-13T18:17:33.171Z,98439.15
2023-01-13T18:20:42.751Z,98443.58
2023-01-13T18:23:52.637Z,98446.19
2023-01-13T18:27:02.418Z,98454.03
2023-01-13T18:29:57.041Z,98455.37
2023-01-13T18:32:49.331Z,98455.52
2023-01-13T18:35:42.307Z,98458.96
2023-01-13T18:38:35.340Z,98464.55
2023-01-13T18:41:45.408Z,98471.23
2023-01-13T18:44:37.771Z,98478.05
2023-01-13T18:47:33.508Z,98480.52
2023-01-13T18:50:27.168Z,98483.23
2023-01-13T18:53:19.574Z,98488.20
2023-01-13T18:56:14.273Z,98486.83
2023-01-13T18:59:06.813Z,98490.90
2023-01-13T19:02:00.089Z,98487.35
2023-01-13T19:04:54.307Z,98496.52
2023-01-13T19:07:50.917Z,98496.09
2023-01-13T19:10:45.647Z,98491.94
2023-01-13T19:13:38.903Z,98495.86
2023-01-13T19:16:31.435Z,98502.84
2023-01-13T19:19:24.207Z,98506.79
2023-01-13T19:22:28.842Z,98509.89
2023-01-13T19:25:21.237Z,98512.02
2023-01-13T19:28:13.344Z,98515.98
2023-01-13T19:31:07.706Z,98514.60
2023-01-13T19:33:59.871Z,98515.45
2023-01-13T19:36:54.106Z,98513.04
2023-01-13T19:39:29.037Z,98518.79
2023-01-13T19:42:38.530Z,98522.27
2023-01-13T19:45:33.696Z,98523.63
2023-01-13T19:48:26.176Z,98524.80
2023-01-13T19:51:18.390Z,98528.65
2023-01-13T19:54:10.552Z,98539.16
2023-01-13T19:57:02.976Z,98537.58
2023-01-13T19:59:55.115Z,98548.77
2023-01-13T20:02:49.599Z,98545.44
2023-01-13T20:05:43.150Z,98548.52
2023-01-13T20:08:19.208Z,98549.46
2023-01-13T20:11:31.347Z,98545.45
2023-01-13T20:14:25.671Z,98555.02
2023-01-13T20:16:57.812Z,98551.61
2023-01-13T20:19:50.746Z,98548.77
2023-01-13T20:22:43.417Z,98544.88
2023-01-13T20:25:36.032Z,98548.28
2023-01-13T20:28:20.006Z,98557.10
2023-01-13T20:31:13.316Z,98565.67
2023-01-13T20:34:05.709Z,98562.35
2023-01-13T20:36:57.905Z,98557.95
2023-01-13T20:39:50.508Z,98565.45
2023-01-13T20:42:45.412Z,98563.91
2023-01-13T20:45:40.480Z,98566.48
2023-01-13T20:48:32.808Z,98570.82
2023-01-13T20:51:25.030Z,98575.54
2023-01-13T20:54:17.191Z,98576.96
2023-01-13T20:57:11.515Z,98582.55
2023-01-13T21:00:03.973Z,98588.11
2023-01-13T21:02:56.351Z,98592.38
2023-01-13T21:05:48.544Z,98592.46
2023-01-13T21:08:40.689Z,98596.21
2023-01-13T21:11:14.998Z,98597.04
2023-01-13T21:14:14.493Z,98595.93
2023-01-13T21:16:49.498Z,98599.76
2023-01-13T21:19:22.478Z,98604.20
2023-01-13T21:22:14.595Z,98613.84
2023-01-13T21:25:08.146Z,98616.97
2023-01-13T21:28:05.615Z,98610.02
2023-01-13T21:31:02.214Z,98613.33
2023-01-13T21:33:57.417Z,98615.16
2023-01-13T21:36:49.653Z,98617.83
2023-01-13T21:39:41.833Z,98619.41
2023-01-13T21:42:44.518Z,98629.66
2023-01-13T21:45:57.232Z,98635.45
2023-01-13T21:48:49.699Z,98636.27
2023-01-13T21:51:41.913Z,98642.14
2023-01-13T21:54:34.320Z,98639.17
2023-01-13T21:57:27.355Z,98647.77
2023-01-13T22:00:22.732Z,98642.93
2023-01-13T22:03:15.664Z,98648.80
2023-01-13T22:06:08.772Z,98650.90
2023-01-13T22:09:01.141Z,98645.19
2023-01-13T22:11:53.295Z,98645.76
2023-01-13T22:14:45.403Z,98640.23
2023-01-13T22:17:37.592Z,98643.65
2023-01-13T22:20:29.695Z,98647.02
2023-01-13T22:23:22.048Z,98646.91
2023-01-13T22:26:14.240Z,98649.35
2023-01-13T22:29:06.336Z,98648.47
2023-01-13T22:31:58.553Z,98649.48
2023-01-13T22:34:51.179Z,98656.59
2023-01-13T22:37:44.254Z,98657.39
2023-01-13T22:40:36.386Z,98656.37
2023-01-13T22:43:30.495Z,98655.58
2023-01-13T22:46:23.886Z,98661.59
2023-01-13T22:49:17.729Z,98653.75
2023-01-13T22:52:09.842Z,98661.74
2023-01-13T22:55:02.416Z,98664.88
2023-01-13T22:57:54.672Z,98662.54
2023-01-13T23:00:47.520Z,98664.36
2023-01-13T23:03:40.160Z,98666.34
2023-01-13T23:06:34.550Z,98675.42
2023-01-13T23:09:25.194Z,98672.75
2023-01-13T23:12:17.386Z,98670.91
2023-01-13T23:15:11.329Z,98660.30
2023-01-13T23:18:03.648Z,98666.58
2023-01-13T23:20:55.873Z,98670.81
2023-01-13T23:23:48.709Z,98670.23
2023-01-13T23:26:30.969Z,98676.11
2023-01-13T23:29:23.090Z,98683.31
2023-01-13T23:32:15.216Z,98688.27
2023-01-13T23:35:09.036Z,98687.11
2023-01-13T23:38:01.080Z,98695.73
2023-01-13T23:40:38.433Z,98691.03
2023-01-13T23:43:30.511Z,98697.00
2023-01-13T23:46:23.142Z,98693.51
2023-01-13T23:49:15.895Z,98695.73
2023-01-13T23:52:08.552Z,98694.73
2023-01-13T23:55:00.668Z,98696.84
2023-01-13T23:57:52.938Z,98699.15
